Time,TemperatureF,DewpointF,PressureIn,WindDirection,WindDirectionDegrees,WindSpeedMPH,WindSpeedGustMPH,Humidity,HourlyPrecipIn,Conditions,Clouds,dailyrainin,SoftwareType,DateUTC
2013-02-06 00:00:00,42.9,32.7,29.88,WNW,292,7.0,18.0,67,0.00,,,-99.99,WeatherLink 5.6,2013-02-06 05:00:00,
2013-02-06 00:30:00,42.4,32.9,29.87,WNW,292,8.0,20.0,69,0.00,,,-99.99,WeatherLink 5.6,2013-02-06 05:30:00,
2013-02-06 01:00:00,40.9,32.6,29.89,NW,315,5.0,14.0,72,0.00,,,-99.99,WeatherLink 5.6,2013-02-06 06:00:00,
2013-02-06 01:30:00,39.8,32.2,29.89,NW,315,5.0,13.0,74,0.00,,,-99.99,WeatherLink 5.6,2013-02-06 06:30:00,
2013-02-06 02:00:00,39.5,32.2,29.91,NW,315,6.0,19.0,75,0.00,,,-99.99,WeatherLink 5.6,2013-02-06 07:00:00,
2013-02-06 02:30:00,38.7,32.1,29.91,NW,315,4.0,14.0,77,0.00,,,-99.99,WeatherLink 5.6,2013-02-06 07:30:00,
2013-02-06 03:00:00,37.5,31.6,29.93,NW,315,5.0,12.0,79,0.00,,,-99.99,WeatherLink 5.6,2013-02-06 08:00:00,
2013-02-06 03:30:00,36.8,31.2,29.93,NW,315,4.0,14.0,80,0.00,,,-99.99,WeatherLink 5.6,2013-02-06 08:30:00,
2013-02-06 04:00:00,36.2,31.2,29.95,NW,315,5.0,12.0,82,0.00,,,-99.99,WeatherLink 5.6,2013-02-06 09:00:00,
2013-02-06 04:30:00,35.7,31.0,29.95,NW,315,2.0,12.0,83,0.00,,,-99.99,WeatherLink 5.6,2013-02-06 09:30:00,
2013-02-06 05:00:00,35.2,30.6,29.97,NW,315,2.0,15.0,83,0.00,,,-99.99,WeatherLink 5.6,2013-02-06 10:00:00,
2013-02-06 05:30:00,34.4,30.1,29.98,NW,315,0.0,1.0,84,0.00,,,-99.99,WeatherLink 5.6,2013-02-06 10:30:00,
2013-02-06 06:00:00,33.5,30.0,29.99,WNW,292,0.0,1.0,87,0.00,,,-99.99,WeatherLink 5.6,2013-02-06 11:00:00,
2013-02-06 06:30:00,32.9,29.7,30.00,NW,315,1.0,7.0,88,0.00,,,-99.99,WeatherLink 5.6,2013-02-06 11:30:00,
2013-02-06 07:00:00,32.3,29.1,30.02,NW,315,0.0,5.0,88,0.00,,,-99.99,WeatherLink 5.6,2013-02-06 12:00:00,
2013-02-06 07:30:00,31.7,29.1,30.03,NW,315,3.0,7.0,90,0.00,,,-99.99,WeatherLink 5.6,2013-02-06 12:30:00,
2013-02-06 08:00:00,31.8,29.2,30.03,NNW,337,1.0,5.0,90,0.00,,,-99.99,WeatherLink 5.6,2013-02-06 13:00:00,
2013-02-06 08:30:00,32.1,29.5,30.05,NW,315,1.0,10.0,90,0.00,,,-99.99,WeatherLink 5.6,2013-02-06 13:30:00,
2013-02-06 09:00:00,32.5,29.9,30.06,NW,315,4.0,12.0,90,0.00,,,-99.99,WeatherLink 5.6,2013-02-06 14:00:00,
2013-02-06 09:30:00,33.5,30.3,30.06,NW,315,2.0,10.0,88,0.00,,,-99.99,WeatherLink 5.6,2013-02-06 14:30:00,
2013-02-06 10:00:00,34.2,30.4,30.08,WNW,292,2.0,11.0,86,0.00,,,-99.99,WeatherLink 5.6,2013-02-06 15:00:00,
2013-02-06 10:30:00,35.1,30.2,30.07,WNW,292,1.0,7.0,82,0.00,,,-99.99,WeatherLink 5.6,2013-02-06 15:30:00,
2013-02-06 11:00:00,36.5,30.9,30.07,NE,45,0.0,6.0,80,0.00,,,-99.99,WeatherLink 5.6,2013-02-06 16:00:00,
2013-02-06 11:30:00,38.9,32.3,30.06,NE,45,0.0,1.0,77,0.00,,,-99.99,WeatherLink 5.6,2013-02-06 16:30:00,
2013-02-06 12:00:00,40.0,31.4,30.06,SW,225,0.0,2.0,71,0.00,,,-99.99,WeatherLink 5.6,2013-02-06 17:00:00,
2013-02-06 12:30:00,41.0,29.7,30.06,NW,315,1.0,8.0,64,0.00,,,-99.99,WeatherLink 5.6,2013-02-06 17:30:00,
2013-02-06 13:00:00,42.9,31.2,30.05,WSW,247,1.0,11.0,63,0.00,,,-99.99,WeatherLink 5.6,2013-02-06 18:00:00,
2013-02-06 13:30:00,44.4,31.0,30.04,WNW,292,2.0,10.0,59,0.00,,,-99.99,WeatherLink 5.6,2013-02-06 18:30:00,
2013-02-06 14:00:00,44.8,30.9,30.03,South,180,1.0,10.0,58,0.00,,,-99.99,WeatherLink 5.6,2013-02-06 19:00:00,
2013-02-06 14:30:00,45.1,30.8,30.04,West,270,1.0,9.0,57,0.00,,,-99.99,WeatherLink 5.6,2013-02-06 19:30:00,
2013-02-06 15:00:00,45.6,31.2,30.03,South,180,2.0,12.0,57,0.00,,,-99.99,WeatherLink 5.6,2013-02-06 20:00:00,
2013-02-06 15:30:00,46.3,31.9,30.04,WSW,247,3.0,12.0,57,0.00,,,-99.99,WeatherLink 5.6,2013-02-06 20:30:00,
2013-02-06 16:00:00,46.8,30.1,30.04,West,270,2.0,11.0,52,0.00,,,-99.99,WeatherLink 5.6,2013-02-06 21:00:00,
2013-02-06 16:30:00,46.1,30.4,30.06,South,180,2.0,9.0,54,0.00,,,-99.99,WeatherLink 5.6,2013-02-06 21:30:00,
2013-02-06 17:00:00,45.6,30.3,30.06,South,180,2.0,11.0,55,0.00,,,-99.99,WeatherLink 5.6,2013-02-06 22:00:00,
2013-02-06 17:30:00,45.0,29.3,30.07,South,180,1.0,6.0,54,0.00,,,-99.99,WeatherLink 5.6,2013-02-06 22:30:00,
2013-02-06 18:00:00,43.9,27.4,30.08,South,180,3.0,8.0,52,0.00,,,-99.99,WeatherLink 5.6,2013-02-06 23:00:00,
2013-02-06 18:30:00,43.9,26.9,30.09,South,180,1.0,5.0,51,0.00,,,-99.99,WeatherLink 5.6,2013-02-06 23:30:00,
2013-02-06 19:00:00,43.1,27.1,30.10,NW,315,0.0,1.0,53,0.00,,,-99.99,WeatherLink 5.6,2013-02-07 00:00:00,
2013-02-06 19:30:00,42.1,27.1,30.09,NE,45,0.0,2.0,55,0.00,,,-99.99,WeatherLink 5.6,2013-02-07 00:30:00,
2013-02-06 20:00:00,41.4,27.7,30.09,NNE,22,0.0,2.0,58,0.00,,,-99.99,WeatherLink 5.6,2013-02-07 01:00:00,
2013-02-06 20:30:00,40.5,27.3,30.08,NNE,22,0.0,6.0,59,0.00,,,-99.99,WeatherLink 5.6,2013-02-07 01:30:00,
2013-02-06 21:00:00,40.1,27.7,30.08,North,-999,0.0,0.0,61,0.00,,,-99.99,WeatherLink 5.6,2013-02-07 02:00:00,
2013-02-06 21:30:00,39.3,27.0,30.10,North,-999,0.0,0.0,61,0.00,,,-99.99,WeatherLink 5.6,2013-02-07 02:30:00,
2013-02-06 22:00:00,39.7,27.3,30.09,North,-999,0.0,0.0,61,0.00,,,-99.99,WeatherLink 5.6,2013-02-07 03:00:00,
2013-02-06 22:30:00,40.7,27.1,30.10,South,180,1.0,4.0,58,0.00,,,-99.99,WeatherLink 5.6,2013-02-07 03:30:00,
2013-02-06 23:00:00,40.6,26.5,30.09,South,180,2.0,5.0,57,0.00,,,-99.99,WeatherLink 5.6,2013-02-07 04:00:00,
2013-02-06 23:30:00,40.6,26.1,30.08,South,180,1.0,5.0,56,0.00,,,-99.99,WeatherLink 5.6,2013-02-07 04:30:00,